Time,TemperatureF,DewpointF,PressureIn,WindDirection,WindDirectionDegrees,WindSpeedMPH,WindSpeedGustMPH,Humidity,HourlyPrecipIn,Conditions,Clouds,dailyrainin,SoftwareType,DateUTC
2013-06-25 00:13:00,73.9,73.0,30.10,SSE,167,1.0,2.0,96,0.00,,,0.00,weatherlink.com 1.10,2013-06-25 05:13:00,
2013-06-25 00:28:00,74.1,73.0,30.10,SSE,159,1.0,2.0,95,0.00,,,0.00,weatherlink.com 1.10,2013-06-25 05:28:00,
2013-06-25 00:43:00,74.2,73.0,30.09,SSE,149,1.0,1.0,95,0.00,,,0.00,weatherlink.com 1.10,2013-06-25 05:43:00,
2013-06-25 00:58:00,74.1,73.0,30.09,SSE,166,1.0,2.0,95,0.00,,,0.00,weatherlink.com 1.10,2013-06-25 05:58:00,
2013-06-25 01:13:00,74.0,73.0,30.09,SSE,162,0.0,2.0,95,0.00,,,0.00,weatherlink.com 1.10,2013-06-25 06:13:00,
2013-06-25 01:28:00,73.9,72.0,30.09,SSE,155,1.0,2.0,95,0.00,,,0.00,weatherlink.com 1.10,2013-06-25 06:28:00,
2013-06-25 01:43:00,73.9,72.0,30.08,SSE,165,1.0,2.0,95,0.00,,,0.00,weatherlink.com 1.10,2013-06-25 06:43:00,
2013-06-25 01:58:00,73.9,72.0,30.08,SSE,165,0.0,1.0,95,0.00,,,0.00,weatherlink.com 1.10,2013-06-25 06:58:00,
2013-06-25 02:13:00,73.7,72.0,30.09,SSE,165,0.0,1.0,95,0.00,,,0.00,weatherlink.com 1.10,2013-06-25 07:13:00,
2013-06-25 02:28:00,73.7,72.0,30.08,SE,143,1.0,1.0,95,0.00,,,0.00,weatherlink.com 1.10,2013-06-25 07:28:00,
2013-06-25 02:43:00,73.6,72.0,30.07,SSE,156,0.0,1.0,96,0.00,,,0.00,weatherlink.com 1.10,2013-06-25 07:43:00,
2013-06-25 02:58:00,73.6,72.0,30.07,South,170,0.0,1.0,96,0.00,,,0.00,weatherlink.com 1.10,2013-06-25 07:58:00,
2013-06-25 03:14:00,73.6,72.0,30.08,South,170,0.0,1.0,96,0.00,,,0.00,weatherlink.com 1.10,2013-06-25 08:14:00,
2013-06-25 03:29:00,73.6,72.0,30.08,South,170,0.0,1.0,96,0.00,,,0.00,weatherlink.com 1.10,2013-06-25 08:29:00,
2013-06-25 03:44:00,73.4,72.0,30.08,SSW,198,0.0,1.0,96,0.00,,,0.00,weatherlink.com 1.10,2013-06-25 08:44:00,
2013-06-25 03:59:00,73.2,72.0,30.08,SSW,198,0.0,0.0,96,0.00,,,0.00,weatherlink.com 1.10,2013-06-25 08:59:00,
2013-06-25 04:14:00,73.3,72.0,30.08,SSW,198,0.0,1.0,96,0.00,,,0.00,weatherlink.com 1.10,2013-06-25 09:14:00,
2013-06-25 04:29:00,73.2,72.0,30.08,SSW,198,0.0,1.0,96,0.00,,,0.00,weatherlink.com 1.10,2013-06-25 09:29:00,
2013-06-25 04:44:00,73.1,72.0,30.07,SSW,198,1.0,1.0,96,0.00,,,0.00,weatherlink.com 1.10,2013-06-25 09:44:00,
2013-06-25 04:59:00,72.9,72.0,30.08,SSW,199,0.0,0.0,96,0.00,,,0.00,weatherlink.com 1.10,2013-06-25 09:59:00,
2013-06-25 05:14:00,72.7,72.0,30.08,SSW,198,0.0,0.0,96,0.00,,,0.00,weatherlink.com 1.10,2013-06-25 10:14:00,
2013-06-25 05:29:00,72.4,71.0,30.08,SSW,198,0.0,0.0,96,0.00,,,0.00,weatherlink.com 1.10,2013-06-25 10:29:00,
2013-06-25 05:44:00,72.1,71.0,30.09,SSW,198,0.0,0.0,96,0.00,,,0.00,weatherlink.com 1.10,2013-06-25 10:44:00,
2013-06-25 05:59:00,71.8,71.0,30.10,SSW,198,0.0,0.0,96,0.01,,,0.01,weatherlink.com 1.10,2013-06-25 10:59:00,
2013-06-25 06:14:00,71.6,71.0,30.11,SSW,198,0.0,1.0,97,0.01,,,0.01,weatherlink.com 1.10,2013-06-25 11:14:00,
2013-06-25 06:29:00,71.6,71.0,30.11,SSW,198,0.0,0.0,97,0.01,,,0.01,weatherlink.com 1.10,2013-06-25 11:29:00,
2013-06-25 06:44:00,71.7,71.0,30.11,SSW,199,0.0,0.0,97,0.01,,,0.01,weatherlink.com 1.10,2013-06-25 11:44:00,
2013-06-25 06:59:00,72.1,71.0,30.11,SSW,198,0.0,0.0,97,0.00,,,0.01,weatherlink.com 1.10,2013-06-25 11:59:00,
2013-06-25 07:14:00,72.6,72.0,30.11,SSW,198,0.0,0.0,97,0.00,,,0.01,weatherlink.com 1.10,2013-06-25 12:14:00,
2013-06-25 07:29:00,73.3,72.0,30.11,SSW,199,0.0,0.0,97,0.00,,,0.01,weatherlink.com 1.10,2013-06-25 12:29:00,
2013-06-25 07:44:00,74.0,73.0,30.11,SSW,198,0.0,0.0,97,0.00,,,0.01,weatherlink.com 1.10,2013-06-25 12:44:00,
2013-06-25 07:59:00,74.9,74.0,30.12,SSW,198,0.0,1.0,97,0.00,,,0.01,weatherlink.com 1.10,2013-06-25 12:59:00,
2013-06-25 08:14:00,75.6,75.0,30.11,SE,146,0.0,1.0,97,0.00,,,0.01,weatherlink.com 1.10,2013-06-25 13:14:00,
2013-06-25 08:29:00,77.0,76.0,30.12,South,172,1.0,2.0,95,0.00,,,0.01,weatherlink.com 1.10,2013-06-25 13:29:00,
2013-06-25 08:44:00,78.3,76.0,30.12,SSE,153,0.0,1.0,92,0.00,,,0.01,weatherlink.com 1.10,2013-06-25 13:44:00,
2013-06-25 08:59:00,79.4,76.0,30.11,South,177,0.0,3.0,90,0.00,,,0.01,weatherlink.com 1.10,2013-06-25 13:59:00,
2013-06-25 09:13:00,79.9,76.0,30.11,SE,143,1.0,3.0,88,0.00,,,0.01,weatherlink.com 1.10,2013-06-25 14:13:00,
2013-06-25 09:28:00,80.8,77.0,30.11,SSE,151,1.0,3.0,87,0.00,,,0.01,weatherlink.com 1.10,2013-06-25 14:28:00,
2013-06-25 09:43:00,81.0,76.0,30.10,SE,134,1.0,3.0,85,0.00,,,0.01,weatherlink.com 1.10,2013-06-25 14:43:00,
2013-06-25 09:58:00,81.7,76.0,30.10,SSE,163,1.0,4.0,83,0.00,,,0.01,weatherlink.com 1.10,2013-06-25 14:58:00,
2013-06-25 10:13:00,82.7,76.0,30.10,SSE,158,1.0,3.0,81,0.00,,,0.01,weatherlink.com 1.10,2013-06-25 15:13:00,
2013-06-25 10:29:00,83.8,76.0,30.10,SSW,195,2.0,3.0,76,0.00,,,0.01,weatherlink.com 1.10,2013-06-25 15:29:00,
2013-06-25 10:44:00,84.8,76.0,30.10,SSW,203,2.0,3.0,75,0.00,,,0.01,weatherlink.com 1.10,2013-06-25 15:44:00,
2013-06-25 10:59:00,85.3,77.0,30.10,West,259,0.0,2.0,75,0.00,,,0.01,weatherlink.com 1.10,2013-06-25 15:59:00,
2013-06-25 11:14:00,86.6,77.0,30.10,SSE,152,1.0,4.0,72,0.00,,,0.01,weatherlink.com 1.10,2013-06-25 16:14:00,
2013-06-25 11:29:00,87.8,78.0,30.10,South,173,2.0,3.0,73,0.00,,,0.01,weatherlink.com 1.10,2013-06-25 16:29:00,
2013-06-25 11:44:00,89.4,77.0,30.10,SW,216,1.0,3.0,66,0.00,,,0.01,weatherlink.com 1.10,2013-06-25 16:44:00,
2013-06-25 11:59:00,89.0,77.0,30.09,NE,56,3.0,3.0,68,0.00,,,0.01,weatherlink.com 1.10,2013-06-25 16:59:00,
2013-06-25 12:14:00,89.5,77.0,30.09,South,176,0.0,3.0,66,0.00,,,0.01,weatherlink.com 1.10,2013-06-25 17:14:00,
2013-06-25 12:29:00,89.7,76.0,30.09,SSE,148,2.0,4.0,65,0.00,,,0.01,weatherlink.com 1.10,2013-06-25 17:29:00,
2013-06-25 12:44:00,89.3,76.0,30.08,ESE,121,1.0,3.0,64,0.00,,,0.01,weatherlink.com 1.10,2013-06-25 17:44:00,
2013-06-25 12:59:00,88.7,77.0,30.08,South,173,3.0,4.0,68,0.00,,,0.01,weatherlink.com 1.10,2013-06-25 17:59:00,
2013-06-25 13:14:00,89.5,76.0,30.08,SSE,164,1.0,3.0,64,0.00,,,0.01,weatherlink.com 1.10,2013-06-25 18:14:00,
2013-06-25 13:29:00,89.3,76.0,30.07,SE,131,0.0,3.0,64,0.00,,,0.01,weatherlink.com 1.10,2013-06-25 18:29:00,
2013-06-25 13:44:00,90.0,75.0,30.07,West,267,0.0,3.0,61,0.00,,,0.01,weatherlink.com 1.10,2013-06-25 18:44:00,
2013-06-25 13:59:00,89.2,76.0,30.06,SSE,153,1.0,3.0,65,0.00,,,0.01,weatherlink.com 1.10,2013-06-25 18:59:00,
2013-06-25 14:14:00,88.6,75.0,30.06,SSW,193,2.0,2.0,65,0.00,,,0.01,weatherlink.com 1.10,2013-06-25 19:14:00,
2013-06-25 14:29:00,88.4,77.0,30.06,SSE,153,5.0,6.0,68,0.00,,,0.01,weatherlink.com 1.10,2013-06-25 19:29:00,
2013-06-25 14:44:00,84.5,75.0,30.07,SSE,160,4.0,10.0,72,0.00,,,0.01,weatherlink.com 1.10,2013-06-25 19:44:00,
2013-06-25 14:59:00,79.6,73.0,30.06,East,88,2.0,6.0,81,0.02,,,0.03,weatherlink.com 1.10,2013-06-25 19:59:00,
2013-06-25 15:14:00,78.3,75.0,30.06,NNW,340,0.0,1.0,89,0.04,,,0.05,weatherlink.com 1.10,2013-06-25 20:14:00,
2013-06-25 15:29:00,80.3,76.0,30.06,NE,47,0.0,2.0,86,0.04,,,0.05,weatherlink.com 1.10,2013-06-25 20:29:00,
2013-06-25 15:44:00,84.5,79.0,30.05,East,89,1.0,2.0,83,0.04,,,0.05,weatherlink.com 1.10,2013-06-25 20:44:00,
2013-06-25 15:59:00,86.4,79.0,30.04,South,177,0.0,2.0,78,0.02,,,0.05,weatherlink.com 1.10,2013-06-25 20:59:00,
2013-06-25 16:14:00,87.0,78.0,30.03,South,174,0.0,2.0,75,0.00,,,0.05,weatherlink.com 1.10,2013-06-25 21:14:00,
2013-06-25 16:29:00,88.2,79.0,30.04,SE,146,1.0,2.0,73,0.00,,,0.05,weatherlink.com 1.10,2013-06-25 21:29:00,
2013-06-25 16:44:00,87.6,77.0,30.04,ESE,122,0.0,3.0,70,0.00,,,0.05,weatherlink.com 1.10,2013-06-25 21:44:00,
2013-06-25 16:59:00,87.5,77.0,30.03,SE,134,2.0,3.0,71,0.00,,,0.05,weatherlink.com 1.10,2013-06-25 21:59:00,
2013-06-25 17:14:00,85.1,74.0,30.03,South,169,1.0,4.0,70,0.00,,,0.05,weatherlink.com 1.10,2013-06-25 22:14:00,
2013-06-25 17:29:00,83.6,75.0,30.03,SSE,155,1.0,4.0,75,0.00,,,0.05,weatherlink.com 1.10,2013-06-25 22:29:00,
2013-06-25 17:44:00,82.4,75.0,30.03,West,260,1.0,3.0,77,0.00,,,0.05,weatherlink.com 1.10,2013-06-25 22:44:00,
2013-06-25 17:59:00,81.4,74.0,30.02,West,259,0.0,2.0,79,0.00,,,0.05,weatherlink.com 1.10,2013-06-25 22:59:00,
2013-06-25 18:14:00,81.0,75.0,30.02,West,266,0.0,0.0,81,0.00,,,0.05,weatherlink.com 1.10,2013-06-25 23:14:00,
2013-06-25 18:29:00,80.5,74.0,30.00,West,269,1.0,1.0,81,0.00,,,0.05,weatherlink.com 1.10,2013-06-25 23:29:00,
2013-06-25 18:44:00,80.3,74.0,30.01,West,278,0.0,1.0,81,0.00,,,0.05,weatherlink.com 1.10,2013-06-25 23:44:00,
2013-06-25 18:59:00,80.1,75.0,30.01,West,280,0.0,1.0,83,0.00,,,0.05,weatherlink.com 1.10,2013-06-25 23:59:00,
2013-06-25 19:14:00,80.3,75.0,30.00,NNE,20,0.0,3.0,84,0.00,,,0.05,weatherlink.com 1.10,2013-06-26 00:14:00,
2013-06-25 19:29:00,80.2,75.0,30.00,North,1,0.0,1.0,84,0.00,,,0.05,weatherlink.com 1.10,2013-06-26 00:29:00,
2013-06-25 19:44:00,80.3,75.0,30.00,North,1,0.0,0.0,84,0.00,,,0.05,weatherlink.com 1.10,2013-06-26 00:44:00,
2013-06-25 19:59:00,80.3,75.0,30.00,SSE,162,0.0,2.0,84,0.00,,,0.05,weatherlink.com 1.10,2013-06-26 00:59:00,
2013-06-25 20:14:00,80.1,75.0,30.01,SSE,165,0.0,1.0,84,0.00,,,0.05,weatherlink.com 1.10,2013-06-26 01:14:00,
2013-06-25 20:29:00,79.4,75.0,30.01,ESE,117,0.0,1.0,86,0.00,,,0.05,weatherlink.com 1.10,2013-06-26 01:29:00,
2013-06-25 20:44:00,78.8,75.0,30.01,ESE,117,0.0,1.0,87,0.00,,,0.05,weatherlink.com 1.10,2013-06-26 01:44:00,
2013-06-25 20:59:00,78.5,75.0,30.01,ESE,117,0.0,1.0,88,0.00,,,0.05,weatherlink.com 1.10,2013-06-26 01:59:00,
2013-06-25 21:14:00,78.1,74.0,30.02,SE,140,0.0,1.0,88,0.00,,,0.05,weatherlink.com 1.10,2013-06-26 02:14:00,
2013-06-25 21:29:00,77.6,74.0,30.02,South,172,0.0,2.0,89,0.00,,,0.05,weatherlink.com 1.10,2013-06-26 02:29:00,
2013-06-25 21:44:00,77.6,74.0,30.02,South,190,2.0,2.0,89,0.00,,,0.05,weatherlink.com 1.10,2013-06-26 02:44:00,
2013-06-25 21:59:00,78.0,74.0,30.02,South,169,2.0,3.0,88,0.00,,,0.05,weatherlink.com 1.10,2013-06-26 02:59:00,
2013-06-25 22:15:00,78.1,74.0,30.02,South,174,1.0,2.0,88,0.00,,,0.05,weatherlink.com 1.10,2013-06-26 03:15:00,
2013-06-25 22:30:00,78.0,74.0,30.02,SSE,160,1.0,3.0,88,0.00,,,0.05,weatherlink.com 1.10,2013-06-26 03:30:00,
2013-06-25 22:45:00,77.9,75.0,30.02,SSE,158,0.0,2.0,89,0.00,,,0.05,weatherlink.com 1.10,2013-06-26 03:45:00,
2013-06-25 23:00:00,77.7,74.0,30.02,SE,134,1.0,2.0,89,0.00,,,0.05,weatherlink.com 1.10,2013-06-26 04:00:00,
2013-06-25 23:15:00,77.3,74.0,30.02,SSE,150,1.0,2.0,90,0.00,,,0.05,weatherlink.com 1.10,2013-06-26 04:15:00,
2013-06-25 23:30:00,77.0,74.0,30.02,SSE,149,1.0,1.0,91,0.00,,,0.05,weatherlink.com 1.10,2013-06-26 04:30:00,
2013-06-25 23:45:00,76.8,74.0,30.02,SE,146,0.0,1.0,91,0.00,,,0.05,weatherlink.com 1.10,2013-06-26 04:45:00,